Terminal Aerodrome Forecast
Issued by NWS Charleston, WV

Current Version | Previous Version | Text Only | Print | Product List | Glossary Off
Versions: 1 2 3 4 5 6 7 8 9 10 11 12 13 14 15 16 17 18 19 20 21 22 23

000
FTUS41 KRLX 161700
TAFBKW
TAF
KBKW 161740Z 1618/1718 15015G28KT P6SM FEW060 BKN080
     FM162100 14015G23KT 6SM -SHRA OVC020
     FM162300 14014G21KT P6SM OVC035
     FM170200 15011G18KT P6SM BKN035
     FM170800 17008KT P6SM BKN025
     FM171200 23004KT P6SM BKN015=

USA.gov is the U.S. government's official web portal to all federal, state and local government web resources and services.